Time,TemperatureF,DewpointF,PressureIn,WindDirection,WindDirectionDegrees,WindSpeedMPH,WindSpeedGustMPH,Humidity,HourlyPrecipIn,Conditions,Clouds,dailyrainin,SoftwareType,DateUTC
2013-08-30 00:00:00,56.1,51.0,29.56,WSW,248,0.0,0.0,83,0.00,RA,SKC,0.00,WeatherDisplay:10.37,2013-08-29 23:00:00,
2013-08-30 00:05:00,55.9,50.9,29.56,WSW,248,0.0,0.0,83,0.00,RA,SKC,0.00,WeatherDisplay:10.37,2013-08-29 23:05:00,
2013-08-30 00:11:00,55.9,50.9,29.57,WSW,248,0.0,0.0,83,0.00,CLR,SKC,0.00,WeatherDisplay:10.37,2013-08-29 23:11:00,
2013-08-30 00:16:00,56.1,51.0,29.57,SW,225,0.0,0.0,83,0.00,CLR,SKC,0.00,WeatherDisplay:10.37,2013-08-29 23:16:00,
2013-08-30 00:21:00,56.1,51.0,29.56,SW,225,0.0,0.0,83,0.00,CLR,SKC,0.00,WeatherDisplay:10.37,2013-08-29 23:21:00,
2013-08-30 00:26:00,56.3,51.5,29.56,WNW,292,0.0,0.0,84,0.00,CLR,SKC,0.00,WeatherDisplay:10.37,2013-08-29 23:26:00,
2013-08-30 00:31:00,56.3,51.5,29.56,WSW,248,0.0,0.0,84,0.00,CLR,SKC,0.00,WeatherDisplay:10.37,2013-08-29 23:31:00,
2013-08-30 00:36:00,56.3,51.5,29.56,SW,225,0.0,0.0,84,0.00,CLR,SKC,0.00,WeatherDisplay:10.37,2013-08-29 23:36:00,
2013-08-30 00:41:00,56.3,51.5,29.56,NNW,338,0.0,0.0,84,0.00,CLR,SKC,0.00,WeatherDisplay:10.37,2013-08-29 23:41:00,
2013-08-30 00:46:00,56.1,51.4,29.56,WNW,292,0.0,0.0,84,0.00,CLR,SKC,0.00,WeatherDisplay:10.37,2013-08-29 23:46:00,
2013-08-30 00:51:00,56.1,51.0,29.55,WSW,248,0.0,0.0,83,0.00,CLR,SKC,0.00,WeatherDisplay:10.37,2013-08-29 23:51:00,
2013-08-30 00:56:00,55.9,50.9,29.55,WNW,292,0.0,0.0,83,0.00,CLR,SKC,0.00,WeatherDisplay:10.37,2013-08-29 23:56:00,
2013-08-30 01:01:00,55.9,51.2,29.55,West,270,0.0,0.0,84,0.00,CLR,SKC,0.00,WeatherDisplay:10.37,2013-08-30 00:01:00,
2013-08-30 01:06:00,55.8,51.0,29.55,West,270,0.0,0.0,84,0.00,CLR,SKC,0.00,WeatherDisplay:10.37,2013-08-30 00:06:00,
2013-08-30 01:11:00,55.6,50.8,29.55,West,270,0.0,0.0,84,0.00,CLR,SKC,0.00,WeatherDisplay:10.37,2013-08-30 00:11:00,
2013-08-30 01:16:00,55.2,50.5,29.55,West,270,0.0,0.0,84,0.00,CLR,SKC,0.00,WeatherDisplay:10.37,2013-08-30 00:16:00,
2013-08-30 01:21:00,55.2,50.5,29.55,SW,225,0.0,0.0,84,0.00,CLR,SKC,0.00,WeatherDisplay:10.37,2013-08-30 00:21:00,
2013-08-30 01:26:00,55.2,50.5,29.55,West,270,0.0,0.0,84,0.00,CLR,SKC,0.00,WeatherDisplay:10.37,2013-08-30 00:26:00,
2013-08-30 01:31:00,55.2,50.8,29.55,West,270,0.0,0.0,85,0.00,CLR,SKC,0.00,WeatherDisplay:10.37,2013-08-30 00:31:00,
2013-08-30 01:36:00,55.6,51.1,29.55,WNW,292,0.0,0.0,85,0.00,CLR,SKC,0.00,WeatherDisplay:10.37,2013-08-30 00:36:00,
2013-08-30 01:41:00,55.8,51.3,29.55,West,270,0.0,0.0,85,0.00,CLR,SKC,0.00,WeatherDisplay:10.37,2013-08-30 00:41:00,
2013-08-30 01:46:00,55.9,51.5,29.55,West,270,0.0,0.0,85,0.00,CLR,SKC,0.00,WeatherDisplay:10.37,2013-08-30 00:46:00,
2013-08-30 01:51:00,55.9,51.5,29.55,WNW,292,0.0,0.0,85,0.00,CLR,SKC,0.00,WeatherDisplay:10.37,2013-08-30 00:51:00,
2013-08-30 01:56:00,56.1,51.7,29.55,West,270,0.0,0.0,85,0.00,CLR,SKC,0.00,WeatherDisplay:10.37,2013-08-30 00:56:00,
2013-08-30 02:01:00,55.9,51.5,29.55,NW,315,0.0,0.0,85,0.00,CLR,SKC,0.00,WeatherDisplay:10.37,2013-08-30 01:01:00,
2013-08-30 02:07:00,56.1,51.7,29.55,NW,315,0.0,0.0,85,0.00,CLR,SKC,0.00,WeatherDisplay:10.37,2013-08-30 01:07:00,
2013-08-30 02:12:00,56.1,51.7,29.55,NW,315,0.0,0.0,85,0.00,CLR,SKC,0.00,WeatherDisplay:10.37,2013-08-30 01:12:00,
2013-08-30 02:17:00,56.1,51.7,29.55,NW,315,0.0,0.0,85,0.00,CLR,SKC,0.00,WeatherDisplay:10.37,2013-08-30 01:17:00,
2013-08-30 02:22:00,56.3,51.8,29.55,NW,315,0.0,0.0,85,0.00,CLR,SKC,0.00,WeatherDisplay:10.37,2013-08-30 01:22:00,
2013-08-30 02:27:00,56.5,52.0,29.55,WNW,292,0.0,0.0,85,0.00,CLR,SKC,0.00,WeatherDisplay:10.37,2013-08-30 01:27:00,
2013-08-30 02:32:00,56.5,52.0,29.55,NW,315,0.0,0.0,85,0.00,CLR,SKC,0.00,WeatherDisplay:10.37,2013-08-30 01:32:00,
2013-08-30 02:37:00,56.5,52.0,29.55,WNW,292,0.0,0.0,85,0.00,CLR,SKC,0.00,WeatherDisplay:10.37,2013-08-30 01:37:00,
2013-08-30 02:42:00,56.5,52.0,29.54,West,270,0.0,0.0,85,0.00,CLR,SKC,0.00,WeatherDisplay:10.37,2013-08-30 01:42:00,
2013-08-30 02:47:00,56.5,52.0,29.54,NW,315,0.0,0.0,85,0.00,CLR,SKC,0.00,WeatherDisplay:10.37,2013-08-30 01:47:00,
2013-08-30 02:52:00,56.7,52.2,29.54,WNW,292,0.0,0.0,85,0.00,CLR,SKC,0.00,WeatherDisplay:10.37,2013-08-30 01:52:00,
2013-08-30 02:57:00,56.7,52.2,29.54,West,270,0.0,0.0,85,0.00,CLR,SKC,0.00,WeatherDisplay:10.37,2013-08-30 01:57:00,
2013-08-30 03:02:00,56.7,52.2,29.54,West,270,0.0,0.0,85,0.00,CLR,SKC,0.00,WeatherDisplay:10.37,2013-08-30 02:02:00,
2013-08-30 03:07:00,56.7,52.2,29.53,West,270,0.0,0.0,85,0.00,CLR,SKC,0.00,WeatherDisplay:10.37,2013-08-30 02:07:00,
2013-08-30 03:12:00,56.5,52.0,29.53,West,270,0.0,0.0,85,0.00,CLR,SKC,0.00,WeatherDisplay:10.37,2013-08-30 02:12:00,
2013-08-30 03:17:00,56.5,52.0,29.53,West,270,0.0,0.0,85,0.00,CLR,SKC,0.00,WeatherDisplay:10.37,2013-08-30 02:17:00,
2013-08-30 03:22:00,56.5,52.0,29.54,West,270,0.0,0.0,85,0.00,CLR,SKC,0.00,WeatherDisplay:10.37,2013-08-30 02:22:00,
2013-08-30 03:27:00,56.5,52.0,29.54,West,270,0.0,0.0,85,0.00,CLR,SKC,0.00,WeatherDisplay:10.37,2013-08-30 02:27:00,
2013-08-30 03:34:00,56.5,52.0,29.53,NW,315,0.0,0.0,85,0.00,CLR,SKC,0.00,WeatherDisplay:10.37,2013-08-30 02:34:00,
2013-08-30 03:39:00,56.5,52.0,29.53,NW,315,0.0,0.0,85,0.00,CLR,SKC,0.00,WeatherDisplay:10.37,2013-08-30 02:39:00,
2013-08-30 03:44:00,56.3,51.8,29.53,NW,315,0.0,0.0,85,0.00,CLR,SKC,0.00,WeatherDisplay:10.37,2013-08-30 02:44:00,
2013-08-30 03:49:00,56.3,51.8,29.54,NW,315,0.0,0.0,85,0.00,CLR,SKC,0.00,WeatherDisplay:10.37,2013-08-30 02:49:00,
2013-08-30 03:54:00,56.5,52.0,29.54,NW,315,0.0,0.0,85,0.00,CLR,SKC,0.00,WeatherDisplay:10.37,2013-08-30 02:54:00,
2013-08-30 03:59:00,56.5,52.0,29.54,NW,315,0.0,0.0,85,0.00,CLR,SKC,0.00,WeatherDisplay:10.37,2013-08-30 02:59:00,
2013-08-30 04:04:00,56.5,52.0,29.54,NW,315,0.0,0.0,85,0.00,CLR,SKC,0.00,WeatherDisplay:10.37,2013-08-30 03:04:00,
2013-08-30 04:09:00,56.5,52.0,29.52,NW,315,0.0,0.0,85,0.00,CLR,SKC,0.00,WeatherDisplay:10.37,2013-08-30 03:09:00,
2013-08-30 04:14:00,56.5,52.0,29.52,NW,315,0.0,0.0,85,0.00,CLR,SKC,0.00,WeatherDisplay:10.37,2013-08-30 03:14:00,
2013-08-30 04:19:00,56.5,52.0,29.52,NW,315,0.0,0.0,85,0.00,CLR,SKC,0.00,WeatherDisplay:10.37,2013-08-30 03:19:00,
2013-08-30 04:24:00,56.3,51.8,29.52,NW,315,0.0,0.0,85,0.00,CLR,SKC,0.00,WeatherDisplay:10.37,2013-08-30 03:24:00,
2013-08-30 04:29:00,56.3,51.8,29.52,NW,315,0.0,0.0,85,0.00,CLR,SKC,0.00,WeatherDisplay:10.37,2013-08-30 03:29:00,
2013-08-30 04:34:00,56.3,51.8,29.52,NW,315,0.0,0.0,85,0.00,CLR,SKC,0.00,WeatherDisplay:10.37,2013-08-30 03:34:00,
2013-08-30 04:39:00,56.3,51.8,29.52,NW,315,0.0,0.0,85,0.00,CLR,SKC,0.00,WeatherDisplay:10.37,2013-08-30 03:39:00,
2013-08-30 04:44:00,56.3,51.8,29.51,NW,315,0.0,0.0,85,0.00,CLR,SKC,0.00,WeatherDisplay:10.37,2013-08-30 03:44:00,
2013-08-30 04:49:00,55.9,51.5,29.51,NW,315,0.0,0.0,85,0.00,CLR,SKC,0.00,WeatherDisplay:10.37,2013-08-30 03:49:00,
2013-08-30 04:54:00,55.8,51.3,29.51,NW,315,0.0,0.0,85,0.00,CLR,SKC,0.00,WeatherDisplay:10.37,2013-08-30 03:54:00,
2013-08-30 04:59:00,55.2,50.8,29.51,NW,315,0.0,0.0,85,0.00,CLR,SKC,0.00,WeatherDisplay:10.37,2013-08-30 03:59:00,
2013-08-30 05:01:00,55.2,50.8,29.51,NW,315,0.0,0.0,85,0.00,CLR,SKC,0.00,WeatherDisplay:10.37,2013-08-30 04:01:00,
2013-08-30 05:02:00,55.2,50.8,29.51,NW,315,0.0,0.0,85,0.00,CLR,SKC,0.00,WeatherDisplay:10.37,2013-08-30 04:02:00,
2013-08-30 05:04:00,54.9,50.1,29.51,NW,315,0.0,0.0,84,0.00,CLR,SKC,0.00,WeatherDisplay:10.37,2013-08-30 04:04:00,
2013-08-30 05:09:00,54.7,50.3,29.51,NW,315,0.0,0.0,85,0.00,CLR,SKC,0.00,WeatherDisplay:10.37,2013-08-30 04:09:00,
2013-08-30 05:14:00,54.3,49.9,29.51,NW,315,0.0,0.0,85,0.00,CLR,SKC,0.00,WeatherDisplay:10.37,2013-08-30 04:14:00,
2013-08-30 05:19:00,54.1,49.7,29.51,NW,315,0.0,0.0,85,0.00,CLR,SKC,0.00,WeatherDisplay:10.37,2013-08-30 04:19:00,
2013-08-30 05:24:00,54.1,50.0,29.51,NW,315,0.0,0.0,86,0.00,CLR,SKC,0.00,WeatherDisplay:10.37,2013-08-30 04:24:00,
2013-08-30 05:29:00,54.3,50.2,29.51,NW,315,0.0,0.0,86,0.00,CLR,SKC,0.00,WeatherDisplay:10.37,2013-08-30 04:29:00,
2013-08-30 05:34:00,54.5,50.4,29.51,NW,315,0.0,0.0,86,0.00,CLR,SKC,0.00,WeatherDisplay:10.37,2013-08-30 04:34:00,
2013-08-30 05:39:00,54.7,50.6,29.50,NW,315,0.0,0.0,86,0.00,CLR,SKC,0.00,WeatherDisplay:10.37,2013-08-30 04:39:00,
2013-08-30 05:44:00,54.9,50.8,29.50,NW,315,0.0,0.0,86,0.00,CLR,SKC,0.00,WeatherDisplay:10.37,2013-08-30 04:44:00,
2013-08-30 05:49:00,55.0,50.9,29.50,NW,315,0.0,0.0,86,0.00,CLR,SKC,0.00,WeatherDisplay:10.37,2013-08-30 04:49:00,
2013-08-30 05:54:00,55.2,51.1,29.50,NW,315,0.0,0.0,86,0.00,CLR,SKC,0.00,WeatherDisplay:10.37,2013-08-30 04:54:00,
2013-08-30 05:59:00,55.2,51.4,29.50,NW,315,0.0,0.0,87,0.00,CLR,SKC,0.00,WeatherDisplay:10.37,2013-08-30 04:59:00,
2013-08-30 06:04:00,55.2,51.4,29.50,WNW,292,0.0,0.0,87,0.00,CLR,SKC,0.00,WeatherDisplay:10.37,2013-08-30 05:04:00,
2013-08-30 06:09:00,55.4,51.6,29.50,WNW,292,0.0,0.0,87,0.00,CLR,SKC,0.00,WeatherDisplay:10.37,2013-08-30 05:09:00,
2013-08-30 06:14:00,55.6,51.8,29.50,WNW,292,0.0,0.0,87,0.00,CLR,SKC,0.00,WeatherDisplay:10.37,2013-08-30 05:14:00,
2013-08-30 06:19:00,55.6,51.8,29.50,WNW,292,0.0,0.0,87,0.00,CLR,SKC,0.00,WeatherDisplay:10.37,2013-08-30 05:19:00,
2013-08-30 06:24:00,55.4,51.6,29.50,WNW,292,0.0,0.0,87,0.00,CLR,SKC,0.00,WeatherDisplay:10.37,2013-08-30 05:24:00,
2013-08-30 06:29:00,55.4,51.6,29.50,WNW,292,0.0,0.0,87,0.00,CLR,SKC,0.00,WeatherDisplay:10.37,2013-08-30 05:29:00,
2013-08-30 06:34:00,55.4,51.6,29.50,WNW,292,0.0,0.0,87,0.00,CLR,SKC,0.00,WeatherDisplay:10.37,2013-08-30 05:34:00,
2013-08-30 06:39:00,55.4,51.6,29.50,WNW,292,0.0,0.0,87,0.00,CLR,SKC,0.00,WeatherDisplay:10.37,2013-08-30 05:39:00,
2013-08-30 06:44:00,55.6,51.8,29.49,WNW,292,0.0,0.0,87,0.00,CLR,SKC,0.00,WeatherDisplay:10.37,2013-08-30 05:44:00,
2013-08-30 06:49:00,55.4,51.6,29.49,WNW,292,0.0,0.0,87,0.00,CLR,SKC,0.00,WeatherDisplay:10.37,2013-08-30 05:49:00,
2013-08-30 06:54:00,55.6,51.8,29.50,WNW,292,0.0,0.0,87,0.00,CLR,SKC,0.00,WeatherDisplay:10.37,2013-08-30 05:54:00,
2013-08-30 06:59:00,55.6,51.8,29.50,WNW,292,0.0,0.0,87,0.00,CLR,SKC,0.00,WeatherDisplay:10.37,2013-08-30 05:59:00,
2013-08-30 07:04:00,55.6,51.8,29.49,WNW,292,0.0,0.0,87,0.00,CLR,SKC,0.00,WeatherDisplay:10.37,2013-08-30 06:04:00,
2013-08-30 07:09:00,55.6,51.8,29.49,WNW,292,0.0,0.0,87,0.00,CLR,SKC,0.00,WeatherDisplay:10.37,2013-08-30 06:09:00,
2013-08-30 07:14:00,55.9,52.1,29.49,WNW,292,0.0,0.0,87,0.00,CLR,SKC,0.00,WeatherDisplay:10.37,2013-08-30 06:14:00,
2013-08-30 07:19:00,55.9,52.1,29.49,WNW,292,0.0,0.0,87,0.00,CLR,SKC,0.00,WeatherDisplay:10.37,2013-08-30 06:19:00,
2013-08-30 07:24:00,56.1,52.3,29.49,NW,315,0.0,0.0,87,0.00,CLR,SKC,0.00,WeatherDisplay:10.37,2013-08-30 06:24:00,
2013-08-30 07:29:00,56.5,52.7,29.49,NW,315,0.0,0.0,87,0.00,CLR,SKC,0.00,WeatherDisplay:10.37,2013-08-30 06:29:00,
2013-08-30 07:34:00,56.7,52.8,29.49,WSW,248,0.0,0.0,87,0.00,CLR,SKC,0.00,WeatherDisplay:10.37,2013-08-30 06:34:00,
2013-08-30 07:39:00,57.0,53.5,29.48,NW,315,0.0,0.0,88,0.00,CLR,SKC,0.00,WeatherDisplay:10.37,2013-08-30 06:39:00,
2013-08-30 07:44:00,57.9,54.7,29.48,NW,315,0.0,0.0,89,0.00,CLR,SKC,0.00,WeatherDisplay:10.37,2013-08-30 06:44:00,
2013-08-30 07:49:00,58.6,55.1,29.48,NW,315,0.0,0.0,88,0.00,CLR,SKC,0.00,WeatherDisplay:10.37,2013-08-30 06:49:00,
2013-08-30 07:54:00,58.8,55.0,29.48,NW,315,0.0,0.0,87,0.00,CLR,SKC,0.00,WeatherDisplay:10.37,2013-08-30 06:54:00,
2013-08-30 07:59:00,58.8,55.0,29.48,NW,315,0.0,0.0,87,0.00,CLR,SKC,0.00,WeatherDisplay:10.37,2013-08-30 06:59:00,
2013-08-30 08:04:00,58.8,55.0,29.47,NW,315,0.0,0.0,87,0.00,CLR,SKC,0.00,WeatherDisplay:10.37,2013-08-30 07:04:00,
2013-08-30 08:09:00,58.8,54.6,29.47,NW,315,0.0,0.0,86,0.00,CLR,SKC,0.00,WeatherDisplay:10.37,2013-08-30 07:09:00,
2013-08-30 08:14:00,58.8,54.6,29.47,WSW,248,0.0,0.0,86,0.00,CLR,SKC,0.00,WeatherDisplay:10.37,2013-08-30 07:14:00,
2013-08-30 08:19:00,59.0,54.8,29.47,West,270,0.0,0.0,86,0.00,CLR,SKC,0.00,WeatherDisplay:10.37,2013-08-30 07:19:00,
2013-08-30 08:24:00,59.4,55.2,29.47,West,270,0.0,0.0,86,0.00,CLR,SKC,0.00,WeatherDisplay:10.37,2013-08-30 07:24:00,
2013-08-30 08:29:00,59.5,55.3,29.47,West,270,0.0,0.0,86,0.00,CLR,SKC,0.00,WeatherDisplay:10.37,2013-08-30 07:29:00,
2013-08-30 08:34:00,59.7,55.2,29.47,North,0,0.0,0.0,85,0.00,CLR,SKC,0.00,WeatherDisplay:10.37,2013-08-30 07:34:00,
2013-08-30 08:39:00,59.7,55.2,29.47,WNW,292,0.0,0.0,85,0.00,CLR,SKC,0.00,WeatherDisplay:10.37,2013-08-30 07:39:00,
2013-08-30 08:44:00,59.7,55.2,29.47,WNW,292,0.0,0.0,85,0.00,CLR,SKC,0.00,WeatherDisplay:10.37,2013-08-30 07:44:00,
2013-08-30 08:49:00,59.7,55.2,29.47,NNW,338,0.0,0.0,85,0.00,CLR,SKC,0.00,WeatherDisplay:10.37,2013-08-30 07:49:00,
2013-08-30 08:54:00,59.9,55.4,29.46,WNW,292,0.0,0.0,85,0.00,CLR,SKC,0.00,WeatherDisplay:10.37,2013-08-30 07:54:00,
2013-08-30 08:59:00,60.4,55.9,29.46,WNW,292,0.0,0.0,85,0.00,CLR,SKC,0.00,WeatherDisplay:10.37,2013-08-30 07:59:00,
2013-08-30 09:04:00,60.6,55.8,29.46,SW,225,0.0,0.0,84,0.00,CLR,SKC,0.00,WeatherDisplay:10.37,2013-08-30 08:04:00,
2013-08-30 09:09:00,60.6,55.8,29.46,WSW,248,0.0,0.0,84,0.00,CLR,SKC,0.00,WeatherDisplay:10.37,2013-08-30 08:09:00,
2013-08-30 09:14:00,61.3,56.5,29.46,WSW,248,0.0,0.0,84,0.00,CLR,SKC,0.00,WeatherDisplay:10.37,2013-08-30 08:14:00,
2013-08-30 09:19:00,61.5,56.6,29.45,WSW,248,0.0,0.0,84,0.00,CLR,SKC,0.00,WeatherDisplay:10.37,2013-08-30 08:19:00,
2013-08-30 09:24:00,61.9,56.7,29.45,WNW,292,0.0,0.0,83,0.00,CLR,SKC,0.00,WeatherDisplay:10.37,2013-08-30 08:24:00,
2013-08-30 09:29:00,62.4,57.2,29.45,WSW,248,0.0,0.0,83,0.00,CLR,SKC,0.00,WeatherDisplay:10.37,2013-08-30 08:29:00,
2013-08-30 09:34:00,62.8,57.5,29.45,SSW,202,0.0,0.0,83,0.00,CLR,SKC,0.00,WeatherDisplay:10.37,2013-08-30 08:34:00,
2013-08-30 09:39:00,63.7,58.1,29.45,SSW,202,0.0,0.0,82,0.00,CLR,SKC,0.00,WeatherDisplay:10.37,2013-08-30 08:39:00,
2013-08-30 09:45:00,63.7,57.7,29.46,WSW,248,0.0,0.0,81,0.00,CLR,SKC,0.00,WeatherDisplay:10.37,2013-08-30 08:45:00,
2013-08-30 09:50:00,63.7,57.4,29.45,WNW,292,0.0,0.0,80,0.00,CLR,SKC,0.00,WeatherDisplay:10.37,2013-08-30 08:50:00,
2013-08-30 09:55:00,63.2,56.6,29.45,West,274,0.0,0.0,79,0.00,CLR,SKC,0.00,WeatherDisplay:10.37,2013-08-30 08:55:00,
2013-08-30 10:00:00,63.1,56.5,29.45,SW,225,0.0,0.0,79,0.00,CLR,SKC,0.00,WeatherDisplay:10.37,2013-08-30 09:00:00,
2013-08-30 10:05:00,63.1,56.5,29.45,WNW,292,0.0,0.0,79,0.00,CLR,SKC,0.00,WeatherDisplay:10.37,2013-08-30 09:05:00,
2013-08-30 10:10:00,62.8,56.2,29.45,NW,315,0.0,0.0,79,0.00,CLR,SKC,0.00,WeatherDisplay:10.37,2013-08-30 09:10:00,
2013-08-30 10:15:00,62.6,56.0,29.45,SSW,202,0.0,0.0,79,0.00,CLR,SKC,0.00,WeatherDisplay:10.37,2013-08-30 09:15:00,
2013-08-30 10:20:00,62.6,56.0,29.45,WSW,239,0.0,0.0,79,0.00,CLR,SKC,0.00,WeatherDisplay:10.37,2013-08-30 09:20:00,
2013-08-30 10:25:00,63.1,56.9,29.44,West,270,0.0,0.0,80,0.00,CLR,SKC,0.00,WeatherDisplay:10.37,2013-08-30 09:25:00,
2013-08-30 10:30:00,63.7,57.4,29.44,WNW,292,0.0,0.0,80,0.00,CLR,SKC,0.00,WeatherDisplay:10.37,2013-08-30 09:30:00,
2013-08-30 10:35:00,63.9,57.6,29.44,NW,316,0.0,0.0,80,0.00,CLR,SKC,0.00,WeatherDisplay:10.37,2013-08-30 09:35:00,
2013-08-30 10:40:00,64.0,57.4,29.44,SW,225,0.0,0.0,79,0.00,CLR,SKC,0.00,WeatherDisplay:10.37,2013-08-30 09:40:00,
2013-08-30 10:45:00,64.0,57.0,29.45,West,262,0.0,0.0,78,0.00,CLR,SKC,0.00,WeatherDisplay:10.37,2013-08-30 09:45:00,
2013-08-30 10:50:00,64.0,57.0,29.44,West,273,0.0,0.0,78,0.00,CLR,SKC,0.00,WeatherDisplay:10.37,2013-08-30 09:50:00,
2013-08-30 10:55:00,63.9,56.9,29.44,West,270,0.0,0.0,78,0.00,CLR,SKC,0.00,WeatherDisplay:10.37,2013-08-30 09:55:00,
2013-08-30 11:00:00,64.0,57.4,29.44,NW,315,0.0,0.0,79,0.00,CLR,SKC,0.00,WeatherDisplay:10.37,2013-08-30 10:00:00,
2013-08-30 11:05:00,64.0,57.4,29.44,North,0,0.0,0.0,79,0.00,CLR,SKC,0.00,WeatherDisplay:10.37,2013-08-30 10:05:00,
2013-08-30 11:10:00,64.0,57.0,29.43,WSW,248,0.0,0.0,78,0.00,CLR,SKC,0.00,WeatherDisplay:10.37,2013-08-30 10:10:00,
2013-08-30 11:15:00,64.0,57.0,29.43,WNW,292,0.0,0.0,78,0.00,CLR,SKC,0.00,WeatherDisplay:10.37,2013-08-30 10:15:00,
2013-08-30 11:20:00,64.2,57.6,29.43,WNW,292,0.0,0.0,79,0.00,CLR,SKC,0.00,WeatherDisplay:10.37,2013-08-30 10:20:00,
2013-08-30 11:25:00,64.8,58.1,29.43,West,270,0.0,0.0,79,0.00,CLR,SKC,0.00,WeatherDisplay:10.37,2013-08-30 10:25:00,
2013-08-30 11:30:00,65.1,58.4,29.42,NNW,338,0.0,0.0,79,0.00,CLR,SKC,0.00,WeatherDisplay:10.37,2013-08-30 10:30:00,
2013-08-30 11:35:00,65.3,58.3,29.42,WNW,292,0.0,0.0,78,0.00,CLR,SKC,0.00,WeatherDisplay:10.37,2013-08-30 10:35:00,
2013-08-30 11:40:00,65.3,58.3,29.42,West,270,0.0,0.0,78,0.00,CLR,SKC,0.00,WeatherDisplay:10.37,2013-08-30 10:40:00,
2013-08-30 11:45:00,65.1,57.7,29.42,WNW,292,0.0,0.0,77,0.00,CLR,SKC,0.00,WeatherDisplay:10.37,2013-08-30 10:45:00,
2013-08-30 11:50:00,65.1,58.1,29.42,West,270,0.0,0.0,78,0.00,CLR,SKC,0.00,WeatherDisplay:10.37,2013-08-30 10:50:00,
2013-08-30 11:55:00,65.3,58.3,29.42,West,270,0.0,0.0,78,0.00,CLR,SKC,0.00,WeatherDisplay:10.37,2013-08-30 10:55:00,
2013-08-30 12:00:00,65.5,58.4,29.42,WNW,292,0.0,0.0,78,0.00,CLR,SKC,0.00,WeatherDisplay:10.37,2013-08-30 11:00:00,
2013-08-30 12:05:00,65.8,58.8,29.42,SW,225,0.0,0.0,78,0.00,CLR,SKC,0.00,WeatherDisplay:10.37,2013-08-30 11:05:00,
2013-08-30 12:10:00,66.2,59.1,29.42,SW,225,0.0,0.0,78,0.00,CLR,SKC,0.00,WeatherDisplay:10.37,2013-08-30 11:10:00,
2013-08-30 12:15:00,66.0,58.6,29.42,SW,225,0.0,0.0,77,0.00,CLR,SKC,0.00,WeatherDisplay:10.37,2013-08-30 11:15:00,
2013-08-30 12:20:00,66.0,58.6,29.42,SW,225,0.0,0.0,77,0.00,CLR,SKC,0.00,WeatherDisplay:10.37,2013-08-30 11:20:00,
2013-08-30 12:25:00,66.0,58.6,29.42,SSW,202,0.0,0.0,77,0.00,CLR,SKC,0.00,WeatherDisplay:10.37,2013-08-30 11:25:00,
2013-08-30 12:30:00,66.0,58.6,29.41,WSW,248,0.0,0.0,77,0.00,CLR,SKC,0.00,WeatherDisplay:10.37,2013-08-30 11:30:00,
2013-08-30 12:35:00,66.0,58.6,29.41,WNW,292,0.0,0.0,77,0.00,CLR,SKC,0.00,WeatherDisplay:10.37,2013-08-30 11:35:00,
2013-08-30 12:40:00,65.8,58.4,29.41,West,270,0.0,0.0,77,0.00,CLR,SKC,0.00,WeatherDisplay:10.37,2013-08-30 11:40:00,
2013-08-30 12:45:00,65.7,58.3,29.41,SSW,202,0.0,0.0,77,0.00,CLR,SKC,0.00,WeatherDisplay:10.37,2013-08-30 11:45:00,
2013-08-30 12:50:00,65.5,58.4,29.41,West,270,0.0,0.0,78,0.00,CLR,SKC,0.00,WeatherDisplay:10.37,2013-08-30 11:50:00,
2013-08-30 12:55:00,65.5,58.4,29.41,SSW,202,0.0,0.0,78,0.00,CLR,SKC,0.00,WeatherDisplay:10.37,2013-08-30 11:55:00,
2013-08-30 13:00:00,65.5,58.4,29.41,West,270,0.0,0.0,78,0.00,CLR,SKC,0.00,WeatherDisplay:10.37,2013-08-30 12:00:00,
2013-08-30 13:05:00,65.3,58.6,29.40,West,270,0.0,0.0,79,0.00,CLR,SKC,0.00,WeatherDisplay:10.37,2013-08-30 12:05:00,
2013-08-30 13:10:00,65.3,58.6,29.41,SW,225,0.0,0.0,79,0.00,CLR,SKC,0.00,WeatherDisplay:10.37,2013-08-30 12:10:00,
2013-08-30 13:15:00,65.3,58.6,29.40,NW,315,0.0,0.0,79,0.00,CLR,SKC,0.00,WeatherDisplay:10.37,2013-08-30 12:15:00,
2013-08-30 13:20:00,65.1,58.4,29.40,NW,315,0.0,0.0,79,0.00,CLR,SKC,0.00,WeatherDisplay:10.37,2013-08-30 12:20:00,
2013-08-30 13:25:00,65.1,58.4,29.40,NNW,338,0.0,0.0,79,0.00,CLR,SKC,0.00,WeatherDisplay:10.37,2013-08-30 12:25:00,
2013-08-30 13:30:00,64.9,58.3,29.40,WNW,292,0.0,0.0,79,0.00,CLR,SKC,0.00,WeatherDisplay:10.37,2013-08-30 12:30:00,
2013-08-30 13:35:00,64.6,57.9,29.40,SW,225,0.0,0.0,79,0.00,CLR,SKC,0.00,WeatherDisplay:10.37,2013-08-30 12:35:00,
2013-08-30 13:40:00,64.6,58.3,29.40,WNW,292,0.0,0.0,80,0.00,CLR,SKC,0.00,WeatherDisplay:10.37,2013-08-30 12:40:00,
2013-08-30 13:45:00,64.2,57.9,29.39,WNW,292,0.0,0.0,80,0.00,CLR,SKC,0.00,WeatherDisplay:10.37,2013-08-30 12:45:00,
2013-08-30 13:50:00,64.2,57.9,29.39,SW,225,0.0,0.0,80,0.00,CLR,SKC,0.00,WeatherDisplay:10.37,2013-08-30 12:50:00,
2013-08-30 13:55:00,64.2,58.3,29.39,SW,225,0.0,0.0,81,0.00,CLR,SKC,0.00,WeatherDisplay:10.37,2013-08-30 12:55:00,
2013-08-30 14:00:00,64.2,58.3,29.39,SW,225,0.0,0.0,81,0.00,CLR,SKC,0.00,WeatherDisplay:10.37,2013-08-30 13:00:00,
2013-08-30 14:05:00,64.6,58.6,29.38,NW,315,0.0,0.0,81,0.00,CLR,SKC,0.00,WeatherDisplay:10.37,2013-08-30 13:05:00,
2013-08-30 14:10:00,64.9,59.0,29.38,SW,225,0.0,0.0,81,0.00,CLR,SKC,0.00,WeatherDisplay:10.37,2013-08-30 13:10:00,
2013-08-30 14:15:00,65.1,58.8,29.38,SSW,202,0.0,0.0,80,0.00,CLR,SKC,0.00,WeatherDisplay:10.37,2013-08-30 13:15:00,
2013-08-30 14:20:00,65.1,58.8,29.38,SW,225,0.0,0.0,80,0.00,CLR,SKC,0.00,WeatherDisplay:10.37,2013-08-30 13:20:00,
2013-08-30 14:25:00,65.1,58.4,29.38,WNW,292,0.0,0.0,79,0.00,CLR,SKC,0.00,WeatherDisplay:10.37,2013-08-30 13:25:00,
2013-08-30 14:30:00,65.3,58.6,29.38,West,270,0.0,0.0,79,0.00,CLR,SKC,0.00,WeatherDisplay:10.37,2013-08-30 13:30:00,
2013-08-30 14:35:00,65.7,59.0,29.38,SW,225,0.0,0.0,79,0.00,CLR,SKC,0.00,WeatherDisplay:10.37,2013-08-30 13:35:00,
2013-08-30 14:40:00,65.8,59.5,29.37,West,270,0.0,0.0,80,0.00,CLR,SKC,0.00,WeatherDisplay:10.37,2013-08-30 13:40:00,
2013-08-30 14:45:00,66.0,59.3,29.37,WNW,292,0.0,0.0,79,0.00,CLR,SKC,0.00,WeatherDisplay:10.37,2013-08-30 13:45:00,
2013-08-30 14:50:00,66.4,59.7,29.37,West,270,0.0,0.0,79,0.00,CLR,SKC,0.00,WeatherDisplay:10.37,2013-08-30 13:50:00,
2013-08-30 14:55:00,66.7,59.7,29.37,West,270,0.0,0.0,78,0.00,CLR,SKC,0.00,WeatherDisplay:10.37,2013-08-30 13:55:00,